sensor_id;sensor_type;location;lat;lon;timestamp;pressure;altitude;pressure_sealevel;temperature;humidity
4767;BME280;2397;53.576;9.746;2023-09-19T00:00:21;100330.03;;;17.23;89.50
4767;BME280;2397;53.576;9.746;2023-09-19T00:02:58;100338.66;;;17.19;89.93
4767;BME280;2397;53.576;9.746;2023-09-19T00:05:29;100343.78;;;17.14;89.91
4767;BME280;2397;53.576;9.746;2023-09-19T00:07:57;100340.91;;;17.09;90.53
4767;BME280;2397;53.576;9.746;2023-09-19T00:10:27;100341.09;;;17.07;91.12
4767;BME280;2397;53.576;9.746;2023-09-19T00:12:58;100346.63;;;17.06;91.43
4767;BME280;2397;53.576;9.746;2023-09-19T00:15:26;100346.25;;;17.09;91.39
4767;BME280;2397;53.576;9.746;2023-09-19T00:17:56;100344.16;;;17.04;91.80
4767;BME280;2397;53.576;9.746;2023-09-19T00:20:23;100346.41;;;17.01;91.94
4767;BME280;2397;53.576;9.746;2023-09-19T00:22:50;100340.47;;;16.99;92.59
4767;BME280;2397;53.576;9.746;2023-09-19T00:25:20;100344.38;;;16.96;92.42
4767;BME280;2397;53.576;9.746;2023-09-19T00:27:47;100339.63;;;16.92;92.76
4767;BME280;2397;53.576;9.746;2023-09-19T00:30:17;100348.03;;;16.88;93.35
4767;BME280;2397;53.576;9.746;2023-09-19T00:32:48;100341.06;;;16.88;93.42
4767;BME280;2397;53.576;9.746;2023-09-19T00:35:15;100344.31;;;16.89;93.18
4767;BME280;2397;53.576;9.746;2023-09-19T00:37:42;100338.00;;;16.91;93.10
4767;BME280;2397;53.576;9.746;2023-09-19T00:40:10;100336.13;;;16.84;93.45
4767;BME280;2397;53.576;9.746;2023-09-19T00:42:45;100342.28;;;16.85;93.70
4767;BME280;2397;53.576;9.746;2023-09-19T00:45:13;100349.25;;;16.86;93.82
4767;BME280;2397;53.576;9.746;2023-09-19T00:47:42;100354.75;;;16.78;94.29
4767;BME280;2397;53.576;9.746;2023-09-19T00:50:11;100357.81;;;16.75;94.66
4767;BME280;2397;53.576;9.746;2023-09-19T00:52:42;100358.22;;;16.72;95.23
4767;BME280;2397;53.576;9.746;2023-09-19T00:55:11;100362.94;;;16.70;95.54
4767;BME280;2397;53.576;9.746;2023-09-19T00:57:41;100358.00;;;16.67;95.87
4767;BME280;2397;53.576;9.746;2023-09-19T01:00:09;100356.97;;;16.68;96.01
4767;BME280;2397;53.576;9.746;2023-09-19T01:02:42;100356.97;;;16.68;96.08
4767;BME280;2397;53.576;9.746;2023-09-19T01:05:12;100369.69;;;16.66;96.06
4767;BME280;2397;53.576;9.746;2023-09-19T01:07:42;100368.66;;;16.67;96.25
4767;BME280;2397;53.576;9.746;2023-09-19T01:10:12;100364.75;;;16.63;96.57
4767;BME280;2397;53.576;9.746;2023-09-19T01:15:24;100369.25;;;16.62;96.53
4767;BME280;2397;53.576;9.746;2023-09-19T01:18:03;100373.16;;;16.60;96.88
4767;BME280;2397;53.576;9.746;2023-09-19T01:23:23;100373.34;;;16.65;95.97
4767;BME280;2397;53.576;9.746;2023-09-19T01:26:06;100376.19;;;16.57;96.02
4767;BME280;2397;53.576;9.746;2023-09-19T01:28:45;100375.59;;;16.55;95.69
4767;BME280;2397;53.576;9.746;2023-09-19T01:31:21;100378.66;;;16.58;94.96
4767;BME280;2397;53.576;9.746;2023-09-19T01:33:58;100369.63;;;16.53;93.47
4767;BME280;2397;53.576;9.746;2023-09-19T01:36:32;100379.44;;;16.52;92.45
4767;BME280;2397;53.576;9.746;2023-09-19T01:39:05;100379.88;;;16.49;93.16
4767;BME280;2397;53.576;9.746;2023-09-19T01:47:28;100388.31;;;16.32;93.06
4767;BME280;2397;53.576;9.746;2023-09-19T01:50:11;100394.47;;;16.32;92.67
4767;BME280;2397;53.576;9.746;2023-09-19T01:52:47;100405.50;;;16.23;93.08
4767;BME280;2397;53.576;9.746;2023-09-19T01:55:16;100400.53;;;16.20;92.59
4767;BME280;2397;53.576;9.746;2023-09-19T01:58:06;100405.69;;;16.21;92.03
4767;BME280;2397;53.576;9.746;2023-09-19T02:00:37;100403.78;;;16.15;91.86
4767;BME280;2397;53.576;9.746;2023-09-19T02:03:04;100405.84;;;16.13;92.04
4767;BME280;2397;53.576;9.746;2023-09-19T02:05:31;100413.19;;;16.11;92.05
4767;BME280;2397;53.576;9.746;2023-09-19T02:07:59;100422.19;;;16.10;91.62
4767;BME280;2397;53.576;9.746;2023-09-19T02:10:26;100417.91;;;16.09;91.99
4767;BME280;2397;53.576;9.746;2023-09-19T02:12:53;100417.03;;;16.02;92.65
4767;BME280;2397;53.576;9.746;2023-09-19T02:15:20;100420.63;;;15.95;93.82
4767;BME280;2397;53.576;9.746;2023-09-19T02:17:46;100423.09;;;15.96;94.86
4767;BME280;2397;53.576;9.746;2023-09-19T02:20:13;100426.22;;;16.00;95.25
4767;BME280;2397;53.576;9.746;2023-09-19T02:22:41;100428.19;;;15.91;96.01
4767;BME280;2397;53.576;9.746;2023-09-19T02:25:08;100421.22;;;15.90;96.64
4767;BME280;2397;53.576;9.746;2023-09-19T02:27:35;100423.28;;;15.95;97.05
4767;BME280;2397;53.576;9.746;2023-09-19T02:30:03;100424.50;;;15.92;97.19
4767;BME280;2397;53.576;9.746;2023-09-19T02:32:30;100433.38;;;15.99;97.38
4767;BME280;2397;53.576;9.746;2023-09-19T02:35:04;100437.66;;;16.00;97.73
4767;BME280;2397;53.576;9.746;2023-09-19T02:37:31;100436.69;;;16.01;97.19
4767;BME280;2397;53.576;9.746;2023-09-19T02:39:59;100443.44;;;16.04;97.50
4767;BME280;2397;53.576;9.746;2023-09-19T02:42:25;100441.84;;;16.09;96.97
4767;BME280;2397;53.576;9.746;2023-09-19T02:44:52;100446.34;;;16.09;96.42
4767;BME280;2397;53.576;9.746;2023-09-19T02:47:18;100432.63;;;16.05;96.17
4767;BME280;2397;53.576;9.746;2023-09-19T02:49:45;100439.19;;;16.09;95.61
4767;BME280;2397;53.576;9.746;2023-09-19T02:52:12;100437.34;;;16.10;95.33
4767;BME280;2397;53.576;9.746;2023-09-19T02:54:40;100443.31;;;16.12;94.64
4767;BME280;2397;53.576;9.746;2023-09-19T02:57:08;100423.44;;;16.14;93.56
4767;BME280;2397;53.576;9.746;2023-09-19T02:59:35;100435.75;;;16.15;93.02
4767;BME280;2397;53.576;9.746;2023-09-19T03:02:04;100435.34;;;16.18;92.46
4767;BME280;2397;53.576;9.746;2023-09-19T03:04:32;100448.47;;;16.20;92.15
4767;BME280;2397;53.576;9.746;2023-09-19T03:07:01;100435.34;;;16.18;91.92
4767;BME280;2397;53.576;9.746;2023-09-19T03:09:30;100443.53;;;16.17;91.84
4767;BME280;2397;53.576;9.746;2023-09-19T03:11:57;100453.56;;;16.15;91.64
4767;BME280;2397;53.576;9.746;2023-09-19T03:14:25;100453.75;;;16.13;91.22
4767;BME280;2397;53.576;9.746;2023-09-19T03:16:57;100448.81;;;16.10;91.21
4767;BME280;2397;53.576;9.746;2023-09-19T03:19:24;100458.22;;;16.06;91.46
4767;BME280;2397;53.576;9.746;2023-09-19T03:21:53;100461.06;;;16.05;91.13
4767;BME280;2397;53.576;9.746;2023-09-19T03:24:20;100464.28;;;16.00;91.02
4767;BME280;2397;53.576;9.746;2023-09-19T03:26:46;100463.50;;;16.00;90.96
4767;BME280;2397;53.576;9.746;2023-09-19T03:29:14;100467.38;;;15.97;91.61
4767;BME280;2397;53.576;9.746;2023-09-19T03:31:43;100478.63;;;15.99;91.73
4767;BME280;2397;53.576;9.746;2023-09-19T03:34:09;100475.72;;;15.94;92.18
4767;BME280;2397;53.576;9.746;2023-09-19T03:36:36;100480.97;;;15.88;92.79
4767;BME280;2397;53.576;9.746;2023-09-19T03:39:02;100478.53;;;15.86;92.78
4767;BME280;2397;53.576;9.746;2023-09-19T03:41:32;100480.53;;;15.84;93.17
4767;BME280;2397;53.576;9.746;2023-09-19T03:43:59;100488.72;;;15.83;92.43
4767;BME280;2397;53.576;9.746;2023-09-19T03:46:26;100481.88;;;15.74;92.79
4767;BME280;2397;53.576;9.746;2023-09-19T03:48:53;100491.69;;;15.73;93.08
4767;BME280;2397;53.576;9.746;2023-09-19T03:51:21;100493.84;;;15.63;92.20
4767;BME280;2397;53.576;9.746;2023-09-19T03:53:48;100502.19;;;15.60;91.73
4767;BME280;2397;53.576;9.746;2023-09-19T03:56:16;100505.44;;;15.56;91.25
4767;BME280;2397;53.576;9.746;2023-09-19T03:58:43;100508.78;;;15.43;90.86
4767;BME280;2397;53.576;9.746;2023-09-19T04:01:10;100502.56;;;15.36;90.54
4767;BME280;2397;53.576;9.746;2023-09-19T04:03:37;100496.31;;;15.29;90.23
4767;BME280;2397;53.576;9.746;2023-09-19T04:06:14;100500.78;;;15.29;90.08
4767;BME280;2397;53.576;9.746;2023-09-19T04:08:41;100510.53;;;15.22;89.56
4767;BME280;2397;53.576;9.746;2023-09-19T04:11:08;100516.59;;;15.16;89.48
4767;BME280;2397;53.576;9.746;2023-09-19T04:13:34;100511.38;;;15.08;89.56
4767;BME280;2397;53.576;9.746;2023-09-19T04:16:02;100504.97;;;15.02;89.78
4767;BME280;2397;53.576;9.746;2023-09-19T04:18:30;100518.09;;;15.04;89.44
4767;BME280;2397;53.576;9.746;2023-09-19T04:21:04;100525.75;;;14.99;88.94
4767;BME280;2397;53.576;9.746;2023-09-19T04:23:32;100524.97;;;14.98;88.45
4767;BME280;2397;53.576;9.746;2023-09-19T04:26:00;100536.50;;;14.91;88.41
4767;BME280;2397;53.576;9.746;2023-09-19T04:28:27;100538.72;;;14.87;88.45
4767;BME280;2397;53.576;9.746;2023-09-19T04:30:56;100547.66;;;14.86;87.82
4767;BME280;2397;53.576;9.746;2023-09-19T04:33:25;100537.78;;;14.80;87.59
4767;BME280;2397;53.576;9.746;2023-09-19T04:35:51;100538.41;;;14.82;87.45
4767;BME280;2397;53.576;9.746;2023-09-19T04:38:18;100553.59;;;14.74;87.99
4767;BME280;2397;53.576;9.746;2023-09-19T04:40:48;100558.47;;;14.70;88.38
4767;BME280;2397;53.576;9.746;2023-09-19T04:43:15;100547.75;;;14.64;88.16
4767;BME280;2397;53.576;9.746;2023-09-19T04:45:42;100550.59;;;14.62;88.41
4767;BME280;2397;53.576;9.746;2023-09-19T04:48:08;100540.25;;;14.67;88.06
4767;BME280;2397;53.576;9.746;2023-09-19T04:50:35;100551.44;;;14.63;88.80
4767;BME280;2397;53.576;9.746;2023-09-19T04:53:04;100555.91;;;14.62;88.71
4767;BME280;2397;53.576;9.746;2023-09-19T04:55:31;100553.97;;;14.56;89.06
4767;BME280;2397;53.576;9.746;2023-09-19T04:57:59;100563.97;;;14.54;89.07
4767;BME280;2397;53.576;9.746;2023-09-19T05:00:26;100563.41;;;14.59;88.51
4767;BME280;2397;53.576;9.746;2023-09-19T05:02:56;100553.69;;;14.51;88.81
4767;BME280;2397;53.576;9.746;2023-09-19T05:05:23;100563.31;;;14.52;89.25
4767;BME280;2397;53.576;9.746;2023-09-19T05:07:52;100569.63;;;14.51;90.22
4767;BME280;2397;53.576;9.746;2023-09-19T05:10:21;100569.28;;;14.54;89.40
4767;BME280;2397;53.576;9.746;2023-09-19T05:12:48;100566.69;;;14.46;89.00
4767;BME280;2397;53.576;9.746;2023-09-19T05:15:18;100567.03;;;14.43;89.07
4767;BME280;2397;53.576;9.746;2023-09-19T05:17:52;100570.69;;;14.42;89.02
4767;BME280;2397;53.576;9.746;2023-09-19T05:20:24;100570.16;;;14.47;88.51
4767;BME280;2397;53.576;9.746;2023-09-19T05:23:04;100579.66;;;14.41;88.96
4767;BME280;2397;53.576;9.746;2023-09-19T05:25:35;100582.69;;;14.38;88.72
4767;BME280;2397;53.576;9.746;2023-09-19T05:28:07;100577.19;;;14.40;88.60
4767;BME280;2397;53.576;9.746;2023-09-19T05:30:34;100581.03;;;14.37;88.68
4767;BME280;2397;53.576;9.746;2023-09-19T05:33:03;100575.78;;;14.29;88.95
4767;BME280;2397;53.576;9.746;2023-09-19T05:35:31;100571.66;;;14.27;89.13
4767;BME280;2397;53.576;9.746;2023-09-19T05:37:58;100568.00;;;14.28;89.29
4767;BME280;2397;53.576;9.746;2023-09-19T05:40:25;100572.19;;;14.22;89.66
4767;BME280;2397;53.576;9.746;2023-09-19T05:42:53;100579.81;;;14.25;89.72
4767;BME280;2397;53.576;9.746;2023-09-19T05:45:19;100589.78;;;14.23;90.06
4767;BME280;2397;53.576;9.746;2023-09-19T05:47:49;100592.06;;;14.26;89.92
4767;BME280;2397;53.576;9.746;2023-09-19T05:50:17;100593.38;;;14.30;89.61
4767;BME280;2397;53.576;9.746;2023-09-19T05:52:51;100600.09;;;14.41;89.07
4767;BME280;2397;53.576;9.746;2023-09-19T05:55:19;100600.19;;;14.47;88.77
4767;BME280;2397;53.576;9.746;2023-09-19T05:57:53;100595.25;;;14.44;88.63
4767;BME280;2397;53.576;9.746;2023-09-19T06:00:20;100597.91;;;14.44;88.34
4767;BME280;2397;53.576;9.746;2023-09-19T06:02:51;100594.81;;;14.55;88.73
4767;BME280;2397;53.576;9.746;2023-09-19T06:05:19;100594.72;;;14.63;88.53
4767;BME280;2397;53.576;9.746;2023-09-19T06:07:47;100601.63;;;14.72;87.55
4767;BME280;2397;53.576;9.746;2023-09-19T06:10:14;100594.13;;;14.76;87.13
4767;BME280;2397;53.576;9.746;2023-09-19T06:12:44;100605.75;;;14.75;87.27
4767;BME280;2397;53.576;9.746;2023-09-19T06:15:12;100608.16;;;14.84;87.39
4767;BME280;2397;53.576;9.746;2023-09-19T06:17:48;100607.78;;;14.87;86.98
4767;BME280;2397;53.576;9.746;2023-09-19T06:20:16;100607.22;;;14.92;87.06
4767;BME280;2397;53.576;9.746;2023-09-19T06:22:44;100616.03;;;14.92;87.06
4767;BME280;2397;53.576;9.746;2023-09-19T06:25:12;100629.50;;;14.91;87.43
4767;BME280;2397;53.576;9.746;2023-09-19T06:27:41;100620.06;;;14.88;86.98
4767;BME280;2397;53.576;9.746;2023-09-19T06:30:10;100615.84;;;14.94;86.68
4767;BME280;2397;53.576;9.746;2023-09-19T06:32:37;100616.56;;;14.88;85.98
4767;BME280;2397;53.576;9.746;2023-09-19T06:35:05;100618.03;;;14.90;85.87
4767;BME280;2397;53.576;9.746;2023-09-19T06:37:38;100624.47;;;14.96;86.14
4767;BME280;2397;53.576;9.746;2023-09-19T06:40:09;100620.91;;;15.03;85.92
4767;BME280;2397;53.576;9.746;2023-09-19T06:42:45;100613.84;;;15.10;85.21
4767;BME280;2397;53.576;9.746;2023-09-19T06:45:13;100628.44;;;15.14;85.62
4767;BME280;2397;53.576;9.746;2023-09-19T06:47:45;100633.66;;;15.22;85.10
4767;BME280;2397;53.576;9.746;2023-09-19T06:50:12;100625.66;;;15.22;85.07
4767;BME280;2397;53.576;9.746;2023-09-19T06:52:42;100627.31;;;15.23;83.89
4767;BME280;2397;53.576;9.746;2023-09-19T06:55:08;100630.38;;;15.20;84.51
4767;BME280;2397;53.576;9.746;2023-09-19T06:57:38;100638.88;;;15.30;85.15
4767;BME280;2397;53.576;9.746;2023-09-19T07:00:06;100627.78;;;15.27;85.10
4767;BME280;2397;53.576;9.746;2023-09-19T07:02:42;100644.84;;;15.32;85.20
4767;BME280;2397;53.576;9.746;2023-09-19T07:05:09;100651.28;;;15.38;85.72
4767;BME280;2397;53.576;9.746;2023-09-19T07:07:36;100654.19;;;15.28;84.61
4767;BME280;2397;53.576;9.746;2023-09-19T07:10:03;100671.09;;;15.35;85.63
4767;BME280;2397;53.576;9.746;2023-09-19T07:12:32;100665.63;;;15.29;84.88
4767;BME280;2397;53.576;9.746;2023-09-19T07:15:02;100667.44;;;15.36;84.82
4767;BME280;2397;53.576;9.746;2023-09-19T07:17:29;100669.91;;;15.38;85.19
4767;BME280;2397;53.576;9.746;2023-09-19T07:19:56;100667.25;;;15.38;85.02
4767;BME280;2397;53.576;9.746;2023-09-19T07:22:26;100666.41;;;15.37;84.96
4767;BME280;2397;53.576;9.746;2023-09-19T07:24:53;100664.31;;;15.47;84.61
4767;BME280;2397;53.576;9.746;2023-09-19T07:27:19;100673.94;;;15.48;83.88
4767;BME280;2397;53.576;9.746;2023-09-19T07:29:46;100675.13;;;15.46;83.98
4767;BME280;2397;53.576;9.746;2023-09-19T07:32:16;100685.34;;;15.34;84.92
4767;BME280;2397;53.576;9.746;2023-09-19T07:34:43;100708.34;;;15.35;85.20
4767;BME280;2397;53.576;9.746;2023-09-19T07:37:11;100705.00;;;15.33;86.47
4767;BME280;2397;53.576;9.746;2023-09-19T07:39:39;100708.44;;;15.19;86.96
4767;BME280;2397;53.576;9.746;2023-09-19T07:42:07;100703.66;;;15.00;88.30
4767;BME280;2397;53.576;9.746;2023-09-19T07:44:35;100684.38;;;14.84;86.39
4767;BME280;2397;53.576;9.746;2023-09-19T07:47:02;100677.06;;;14.86;87.73
4767;BME280;2397;53.576;9.746;2023-09-19T07:49:29;100696.47;;;14.86;89.29
4767;BME280;2397;53.576;9.746;2023-09-19T07:51:56;100691.16;;;14.86;89.59
4767;BME280;2397;53.576;9.746;2023-09-19T07:54:23;100685.50;;;14.89;88.58
4767;BME280;2397;53.576;9.746;2023-09-19T07:56:50;100688.06;;;14.97;88.45
4767;BME280;2397;53.576;9.746;2023-09-19T07:59:17;100690.09;;;14.95;89.22
4767;BME280;2397;53.576;9.746;2023-09-19T08:01:44;100700.63;;;15.03;89.38
4767;BME280;2397;53.576;9.746;2023-09-19T08:04:11;100703.97;;;15.05;89.30
4767;BME280;2397;53.576;9.746;2023-09-19T08:06:37;100692.41;;;15.13;89.47
4767;BME280;2397;53.576;9.746;2023-09-19T08:09:05;100697.19;;;15.17;88.81
4767;BME280;2397;53.576;9.746;2023-09-19T08:11:35;100702.78;;;15.22;88.36
4767;BME280;2397;53.576;9.746;2023-09-19T08:14:02;100691.06;;;15.31;86.88
4767;BME280;2397;53.576;9.746;2023-09-19T08:16:28;100683.66;;;15.41;87.16
4767;BME280;2397;53.576;9.746;2023-09-19T08:18:56;100686.88;;;15.51;86.47
4767;BME280;2397;53.576;9.746;2023-09-19T08:21:23;100688.16;;;15.55;86.45
4767;BME280;2397;53.576;9.746;2023-09-19T08:23:50;100698.25;;;15.60;85.79
4767;BME280;2397;53.576;9.746;2023-09-19T08:26:17;100698.16;;;15.68;85.08
4767;BME280;2397;53.576;9.746;2023-09-19T08:28:43;100693.72;;;15.60;84.02
4767;BME280;2397;53.576;9.746;2023-09-19T08:31:10;100693.72;;;15.60;83.18
4767;BME280;2397;53.576;9.746;2023-09-19T08:33:37;100695.78;;;15.58;83.26
4767;BME280;2397;53.576;9.746;2023-09-19T08:36:06;100703.53;;;15.74;82.82
4767;BME280;2397;53.576;9.746;2023-09-19T08:38:35;100691.63;;;15.70;82.58
4767;BME280;2397;53.576;9.746;2023-09-19T08:41:06;100692.28;;;15.72;81.17
4767;BME280;2397;53.576;9.746;2023-09-19T08:43:34;100693.25;;;15.71;81.92
4767;BME280;2397;53.576;9.746;2023-09-19T08:46:12;100696.38;;;15.89;80.92
4767;BME280;2397;53.576;9.746;2023-09-19T08:49:05;100700.53;;;15.92;80.56
4767;BME280;2397;53.576;9.746;2023-09-19T08:51:41;100699.31;;;15.94;81.10
4767;BME280;2397;53.576;9.746;2023-09-19T08:54:08;100693.88;;;16.02;80.55
4767;BME280;2397;53.576;9.746;2023-09-19T08:56:36;100699.75;;;15.98;79.29
4767;BME280;2397;53.576;9.746;2023-09-19T08:59:06;100702.78;;;15.95;79.93
4767;BME280;2397;53.576;9.746;2023-09-19T09:01:39;100701.22;;;16.00;79.56
4767;BME280;2397;53.576;9.746;2023-09-19T09:04:09;100709.97;;;15.94;79.83
4767;BME280;2397;53.576;9.746;2023-09-19T09:06:38;100709.13;;;16.08;79.00
4767;BME280;2397;53.576;9.746;2023-09-19T09:09:06;100723.31;;;16.15;78.78
4767;BME280;2397;53.576;9.746;2023-09-19T09:11:33;100718.50;;;16.25;79.13
4767;BME280;2397;53.576;9.746;2023-09-19T09:14:00;100713.19;;;16.25;77.60
4767;BME280;2397;53.576;9.746;2023-09-19T09:16:29;100721.53;;;16.37;77.42
4767;BME280;2397;53.576;9.746;2023-09-19T09:18:56;100709.94;;;16.44;77.29
4767;BME280;2397;53.576;9.746;2023-09-19T09:21:25;100703.63;;;16.45;76.34
4767;BME280;2397;53.576;9.746;2023-09-19T09:23:52;100704.25;;;16.47;76.00
4767;BME280;2397;53.576;9.746;2023-09-19T09:26:41;100706.53;;;16.50;75.20
4767;BME280;2397;53.576;9.746;2023-09-19T09:29:09;100709.53;;;16.62;75.82
4767;BME280;2397;53.576;9.746;2023-09-19T09:31:36;100710.91;;;16.79;74.49
4767;BME280;2397;53.576;9.746;2023-09-19T09:34:04;100716.19;;;16.72;74.66
4767;BME280;2397;53.576;9.746;2023-09-19T09:36:35;100712.53;;;16.80;73.48
4767;BME280;2397;53.576;9.746;2023-09-19T09:39:03;100696.66;;;16.93;73.57
4767;BME280;2397;53.576;9.746;2023-09-19T09:41:43;100707.03;;;17.09;73.91
4767;BME280;2397;53.576;9.746;2023-09-19T09:44:17;100707.69;;;17.11;73.11
4767;BME280;2397;53.576;9.746;2023-09-19T09:46:48;100707.56;;;17.26;72.48
4767;BME280;2397;53.576;9.746;2023-09-19T09:49:25;100697.69;;;17.20;69.54
4767;BME280;2397;53.576;9.746;2023-09-19T09:52:03;100710.44;;;17.24;70.40
4767;BME280;2397;53.576;9.746;2023-09-19T09:55:01;100702.78;;;17.42;70.90
4767;BME280;2397;53.576;9.746;2023-09-19T09:57:32;100698.47;;;17.41;68.20
4767;BME280;2397;53.576;9.746;2023-09-19T10:00:00;100705.91;;;17.46;68.55
4767;BME280;2397;53.576;9.746;2023-09-19T10:02:39;100699.84;;;17.65;66.33
4767;BME280;2397;53.576;9.746;2023-09-19T10:05:16;100698.22;;;17.64;66.96
4767;BME280;2397;53.576;9.746;2023-09-19T10:07:55;100706.28;;;17.83;67.83
4767;BME280;2397;53.576;9.746;2023-09-19T10:10:35;100697.09;;;17.86;64.75
4767;BME280;2397;53.576;9.746;2023-09-19T10:13:12;100703.06;;;17.94;64.37
4767;BME280;2397;53.576;9.746;2023-09-19T10:15:48;100695.88;;;17.95;62.98
4767;BME280;2397;53.576;9.746;2023-09-19T10:18:22;100697.78;;;18.01;62.36
4767;BME280;2397;53.576;9.746;2023-09-19T10:20:49;100698.94;;;17.92;62.39
4767;BME280;2397;53.576;9.746;2023-09-19T10:23:18;100698.94;;;17.85;62.84
4767;BME280;2397;53.576;9.746;2023-09-19T10:25:53;100696.84;;;17.81;63.52
4767;BME280;2397;53.576;9.746;2023-09-19T10:28:21;100685.13;;;17.82;62.31
4767;BME280;2397;53.576;9.746;2023-09-19T10:30:52;100694.44;;;17.92;63.05
4767;BME280;2397;53.576;9.746;2023-09-19T10:33:21;100683.50;;;17.87;63.41
4767;BME280;2397;53.576;9.746;2023-09-19T10:35:50;100695.25;;;17.93;64.32
4767;BME280;2397;53.576;9.746;2023-09-19T10:38:26;100693.13;;;17.82;63.34
4767;BME280;2397;53.576;9.746;2023-09-19T10:40:56;100705.66;;;17.75;63.03
4767;BME280;2397;53.576;9.746;2023-09-19T10:43:32;100709.97;;;17.76;63.05
4767;BME280;2397;53.576;9.746;2023-09-19T10:46:03;100689.22;;;17.78;62.78
4767;BME280;2397;53.576;9.746;2023-09-19T10:48:33;100697.69;;;17.88;62.65
4767;BME280;2397;53.576;9.746;2023-09-19T10:56:29;100703.09;;;18.01;62.88
4767;BME280;2397;53.576;9.746;2023-09-19T10:59:09;100700.28;;;18.22;62.55
4767;BME280;2397;53.576;9.746;2023-09-19T11:01:44;100705.34;;;18.04;63.27
4767;BME280;2397;53.576;9.746;2023-09-19T11:04:30;100713.31;;;17.91;64.60
4767;BME280;2397;53.576;9.746;2023-09-19T11:07:06;100712.75;;;18.02;63.76
4767;BME280;2397;53.576;9.746;2023-09-19T11:09:47;100699.59;;;18.00;63.47
4767;BME280;2397;53.576;9.746;2023-09-19T11:14:58;100701.59;;;18.39;61.67
4767;BME280;2397;53.576;9.746;2023-09-19T11:17:34;100693.59;;;18.52;61.28
4767;BME280;2397;53.576;9.746;2023-09-19T11:30:40;100663.22;;;18.72;58.78
4767;BME280;2397;53.576;9.746;2023-09-19T11:33:29;100665.88;;;19.05;57.23
4767;BME280;2397;53.576;9.746;2023-09-19T11:36:16;100673.25;;;19.22;58.51
4767;BME280;2397;53.576;9.746;2023-09-19T11:43:48;100651.66;;;19.37;55.85
4767;BME280;2397;53.576;9.746;2023-09-19T11:46:21;100658.88;;;19.30;56.68
4767;BME280;2397;53.576;9.746;2023-09-19T11:48:48;100653.31;;;19.12;56.88
4767;BME280;2397;53.576;9.746;2023-09-19T11:51:18;100667.50;;;19.19;57.20
4767;BME280;2397;53.576;9.746;2023-09-19T11:53:56;100660.94;;;19.15;57.61
4767;BME280;2397;53.576;9.746;2023-09-19T11:56:26;100661.72;;;19.15;57.75
4767;BME280;2397;53.576;9.746;2023-09-19T11:58:58;100662.56;;;18.96;57.88
4767;BME280;2397;53.576;9.746;2023-09-19T12:01:31;100673.28;;;18.70;58.63
4767;BME280;2397;53.576;9.746;2023-09-19T12:04:01;100667.72;;;18.91;57.54
4767;BME280;2397;53.576;9.746;2023-09-19T12:06:30;100666.84;;;19.23;56.92
4767;BME280;2397;53.576;9.746;2023-09-19T12:08:58;100657.78;;;19.50;57.10
4767;BME280;2397;53.576;9.746;2023-09-19T12:11:30;100646.69;;;19.40;55.50
4767;BME280;2397;53.576;9.746;2023-09-19T12:14:00;100659.63;;;19.50;57.00
4767;BME280;2397;53.576;9.746;2023-09-19T12:16:27;100681.91;;;19.31;58.02
4767;BME280;2397;53.576;9.746;2023-09-19T12:19:18;100661.09;;;19.33;57.52
4767;BME280;2397;53.576;9.746;2023-09-19T12:22:03;100658.97;;;20.18;56.85
4767;BME280;2397;53.576;9.746;2023-09-19T12:24:33;100630.59;;;20.84;53.27
4767;BME280;2397;53.576;9.746;2023-09-19T12:27:03;100608.72;;;20.63;51.46
4767;BME280;2397;53.576;9.746;2023-09-19T12:29:42;100605.22;;;20.62;50.47
4767;BME280;2397;53.576;9.746;2023-09-19T12:32:09;100617.66;;;20.81;51.49
4767;BME280;2397;53.576;9.746;2023-09-19T12:34:36;100599.22;;;21.09;50.00
4767;BME280;2397;53.576;9.746;2023-09-19T12:39:45;100588.69;;;20.65;50.28
4767;BME280;2397;53.576;9.746;2023-09-19T12:42:17;100595.50;;;20.86;50.15
4767;BME280;2397;53.576;9.746;2023-09-19T12:44:49;100588.59;;;20.78;49.32
4767;BME280;2397;53.576;9.746;2023-09-19T12:47:18;100596.66;;;20.23;50.20
4767;BME280;2397;53.576;9.746;2023-09-19T12:52:42;100574.91;;;20.37;49.39
4767;BME280;2397;53.576;9.746;2023-09-19T12:55:23;100568.66;;;20.43;49.33
4767;BME280;2397;53.576;9.746;2023-09-19T12:58:07;100574.91;;;20.62;49.56
4767;BME280;2397;53.576;9.746;2023-09-19T13:00:43;100587.22;;;21.12;50.94
4767;BME280;2397;53.576;9.746;2023-09-19T13:06:03;100572.03;;;21.42;48.14
4767;BME280;2397;53.576;9.746;2023-09-19T13:08:40;100546.31;;;21.16;47.85
4767;BME280;2397;53.576;9.746;2023-09-19T13:11:13;100530.09;;;20.87;48.15
4767;BME280;2397;53.576;9.746;2023-09-19T13:13:45;100548.25;;;21.27;47.76
4767;BME280;2397;53.576;9.746;2023-09-19T13:16:16;100537.94;;;21.24;47.78
4767;BME280;2397;53.576;9.746;2023-09-19T13:18:51;100563.00;;;21.00;49.65
4767;BME280;2397;53.576;9.746;2023-09-19T13:21:30;100539.31;;;21.33;48.08
4767;BME280;2397;53.576;9.746;2023-09-19T13:24:20;100556.81;;;21.18;49.03
4767;BME280;2397;53.576;9.746;2023-09-19T13:26:47;100547.56;;;21.50;47.91
4767;BME280;2397;53.576;9.746;2023-09-19T13:29:13;100511.09;;;20.88;48.03
4767;BME280;2397;53.576;9.746;2023-09-19T13:31:47;100537.91;;;21.60;47.14
4767;BME280;2397;53.576;9.746;2023-09-19T13:34:14;100529.41;;;21.16;49.05
4767;BME280;2397;53.576;9.746;2023-09-19T13:36:43;100526.53;;;21.29;48.90
4767;BME280;2397;53.576;9.746;2023-09-19T13:39:10;100517.84;;;20.97;48.34
4767;BME280;2397;53.576;9.746;2023-09-19T13:41:39;100510.22;;;21.12;48.43
4767;BME280;2397;53.576;9.746;2023-09-19T13:44:06;100511.09;;;21.42;47.75
4767;BME280;2397;53.576;9.746;2023-09-19T13:46:33;100509.75;;;21.81;47.06
4767;BME280;2397;53.576;9.746;2023-09-19T13:49:01;100504.72;;;21.55;47.37
4767;BME280;2397;53.576;9.746;2023-09-19T13:51:32;100511.69;;;22.15;47.45
4767;BME280;2397;53.576;9.746;2023-09-19T13:53:59;100496.94;;;21.94;45.87
4767;BME280;2397;53.576;9.746;2023-09-19T13:56:26;100487.38;;;21.69;46.59
4767;BME280;2397;53.576;9.746;2023-09-19T13:58:57;100486.81;;;21.01;47.65
4767;BME280;2397;53.576;9.746;2023-09-19T14:01:24;100497.69;;;20.70;48.93
4767;BME280;2397;53.576;9.746;2023-09-19T14:03:51;100508.38;;;20.95;48.62
4767;BME280;2397;53.576;9.746;2023-09-19T14:06:20;100499.53;;;21.42;47.72
4767;BME280;2397;53.576;9.746;2023-09-19T14:08:47;100485.13;;;21.66;47.55